Time;durP1;ratioP1;P1;durP2;ratioP2;P2;SDS_P1;SDS_P2;PMS_P1;PMS_P2;Temp;Humidity;BMP_temperature;BMP_pressure;BME280_temperature;BME280_humidity;BME280_pressure;Samples;Min_cycle;Max_cycle;Signal;HPM_P1;HPM_P2
2023/01/14 00:01:44;;;;;;;11.83;7.37;;;8.30;99.90;;;;;;5035201;28;20289;-64
2023/01/14 00:04:09;;;;;;;7.10;6.47;;;8.30;99.90;;;;;;5039434;28;20215;-63
2023/01/14 00:06:36;;;;;;;16.57;7.10;;;8.30;99.90;;;;;;5055597;28;20229;-64
2023/01/14 00:09:07;;;;;;;10.30;6.30;;;8.20;99.90;;;;;;5052202;28;21909;-64
2023/01/14 00:11:51;;;;;;;11.60;6.17;;;8.20;99.90;;;;;;5035368;28;20729;-64
2023/01/14 00:14:22;;;;;;;6.63;6.00;;;8.10;99.90;;;;;;5049360;28;20609;-64
2023/01/14 00:16:50;;;;;;;9.90;6.80;;;8.10;99.90;;;;;;5054993;28;20182;-63
2023/01/14 00:19:16;;;;;;;11.00;7.40;;;8.00;99.90;;;;;;5040425;28;20194;-63
2023/01/14 00:21:43;;;;;;;12.43;7.63;;;8.00;99.90;;;;;;5034241;28;20639;-63
2023/01/14 00:24:10;;;;;;;16.87;7.43;;;8.00;99.90;;;;;;5046896;28;20179;-63
2023/01/14 00:26:36;;;;;;;10.10;5.50;;;8.00;99.90;;;;;;5054682;28;20205;-64
2023/01/14 00:29:02;;;;;;;13.23;6.47;;;7.90;99.90;;;;;;5043660;28;20270;-63
2023/01/14 00:31:29;;;;;;;10.00;5.90;;;7.80;99.90;;;;;;5034169;28;20702;-63
2023/01/14 00:33:57;;;;;;;14.10;6.63;;;7.80;99.90;;;;;;5052961;28;20248;-63
2023/01/14 00:36:24;;;;;;;7.07;6.37;;;7.70;99.90;;;;;;5054645;28;20182;-63
2023/01/14 00:38:50;;;;;;;12.17;6.80;;;7.60;99.90;;;;;;5036864;28;20187;-63
2023/01/14 00:41:21;;;;;;;8.87;6.70;;;7.50;99.90;;;;;;5033845;28;20234;-63
2023/01/14 00:43:52;;;;;;;8.67;6.03;;;7.50;99.90;;;;;;5050961;28;20230;-63
2023/01/14 00:46:21;;;;;;;13.40;7.30;;;7.40;99.90;;;;;;5054375;28;20206;-63
2023/01/14 00:48:47;;;;;;;8.00;7.30;;;7.40;99.90;;;;;;5038150;28;20172;-63
2023/01/14 00:51:14;;;;;;;11.37;6.63;;;7.30;99.90;;;;;;5033860;28;20856;-63
2023/01/14 00:53:41;;;;;;;9.37;6.50;;;7.30;99.90;;;;;;5048474;28;20178;-63
2023/01/14 00:56:08;;;;;;;14.07;6.63;;;7.30;99.90;;;;;;5049543;28;20179;-63
2023/01/14 00:58:33;;;;;;;6.77;6.10;;;7.20;99.90;;;;;;5034253;28;20180;-63
2023/01/14 01:00:59;;;;;;;11.07;6.10;;;7.20;99.90;;;;;;5044544;28;20193;-63
2023/01/14 01:03:26;;;;;;;12.33;6.37;;;7.20;99.90;;;;;;5054008;28;20559;-63
2023/01/14 01:05:52;;;;;;;12.13;5.93;;;7.20;99.90;;;;;;5034286;28;20259;-63
2023/01/14 01:08:20;;;;;;;10.30;6.17;;;7.20;99.90;;;;;;5034193;28;20602;-63
2023/01/14 01:10:52;;;;;;;11.40;8.53;;;7.30;99.90;;;;;;5051368;28;20189;-64
2023/01/14 01:13:18;;;;;;;14.40;7.63;;;7.40;99.90;;;;;;5053763;28;20178;-64
2023/01/14 01:15:44;;;;;;;7.53;6.67;;;7.40;99.90;;;;;;5036585;28;20611;-64
2023/01/14 01:18:11;;;;;;;17.87;7.77;;;7.50;99.90;;;;;;5033906;28;20191;-63
2023/01/14 01:20:37;;;;;;;8.40;6.93;;;7.60;99.90;;;;;;5048788;28;20554;-64
2023/01/14 01:23:04;;;;;;;12.37;7.87;;;7.60;99.90;;;;;;5053805;28;20202;-64
2023/01/14 01:25:30;;;;;;;12.93;7.33;;;7.80;99.90;;;;;;5039152;28;20296;-62
2023/01/14 01:27:56;;;;;;;9.50;7.23;;;7.80;99.90;;;;;;5035246;28;20264;-64
2023/01/14 01:30:22;;;;;;;9.07;8.47;;;7.90;99.90;;;;;;5053258;28;20182;-63
2023/01/14 01:32:48;;;;;;;7.10;6.57;;;8.00;99.90;;;;;;5044032;28;20286;-63
2023/01/14 01:35:14;;;;;;;12.73;6.37;;;8.00;99.90;;;;;;5033499;28;20330;-63
2023/01/14 01:37:39;;;;;;;5.87;5.37;;;8.10;99.90;;;;;;5040806;28;20225;-63
2023/01/14 01:40:06;;;;;;;10.63;6.20;;;8.10;99.90;;;;;;5053095;28;20262;-64
2023/01/14 01:42:34;;;;;;;12.87;6.47;;;8.10;99.90;;;;;;5047921;28;20223;-63
2023/01/14 01:45:14;;;;;;;11.63;6.60;;;8.20;99.90;;;;;;5033336;28;20203;-63
2023/01/14 01:47:40;;;;;;;13.60;6.50;;;8.20;99.90;;;;;;5039208;28;20181;-63
2023/01/14 01:50:06;;;;;;;15.50;6.83;;;8.20;99.90;;;;;;5052962;28;20174;-63
2023/01/14 01:52:33;;;;;;;8.73;5.50;;;8.30;99.90;;;;;;5049634;28;20665;-64
2023/01/14 01:55:06;;;;;;;8.90;5.90;;;8.30;99.90;;;;;;5033221;28;20180;-63
2023/01/14 01:57:31;;;;;;;15.37;6.10;;;8.30;99.90;;;;;;5036278;28;20262;-64
2023/01/14 02:00:02;;;;;;;10.37;6.47;;;8.30;99.90;;;;;;5052755;28;20198;-64
2023/01/14 02:02:29;;;;;;;10.13;6.80;;;8.40;99.90;;;;;;5050292;28;20689;-63
2023/01/14 02:04:54;;;;;;;6.93;5.67;;;8.30;99.90;;;;;;5033064;28;20754;-63
2023/01/14 02:07:25;;;;;;;10.07;6.63;;;8.30;99.90;;;;;;5033278;28;20172;-63
2023/01/14 02:09:58;;;;;;;11.23;6.47;;;8.30;99.90;;;;;;5052553;28;20182;-64
2023/01/14 02:12:47;;;;;;;10.07;6.33;;;8.30;99.90;;;;;;5043603;28;20571;-64
2023/01/14 02:15:40;;;;;;;6.20;5.30;;;8.30;99.90;;;;;;5032750;28;20180;-64
2023/01/14 02:18:37;;;;;;;16.23;5.87;;;8.30;99.90;;;;;;5046217;28;20260;-64
2023/01/14 02:21:25;;;;;;;12.80;5.90;;;8.30;99.90;;;;;;5052311;28;20199;-63
2023/01/14 02:24:29;;;;;;;7.07;6.37;;;8.30;99.90;;;;;;5033385;28;20659;-64
2023/01/14 02:27:30;;;;;;;19.27;6.80;;;8.20;99.90;;;;;;4991953;28;20254;-64
2023/01/14 02:30:12;;;;;;;8.13;5.97;;;8.20;99.90;;;;;;5012504;28;20188;-63
2023/01/14 02:32:48;;;;;;;8.70;6.17;;;8.10;99.90;;;;;;5028033;28;20207;-64
2023/01/14 02:35:35;;;;;;;13.53;6.80;;;8.00;99.90;;;;;;5052417;28;20554;-64
2023/01/14 02:38:38;;;;;;;12.60;7.20;;;7.90;99.90;;;;;;5042144;28;20186;-64
2023/01/14 02:41:15;;;;;;;11.07;9.30;;;7.90;99.90;;;;;;5029811;28;20217;-64
2023/01/14 02:44:10;;;;;;;7.87;7.27;;;7.80;99.90;;;;;;5046872;28;20536;-64
2023/01/14 02:46:44;;;;;;;10.73;7.07;;;7.80;99.90;;;;;;5050902;28;20210;-64
2023/01/14 02:49:14;;;;;;;6.80;6.40;;;7.70;99.90;;;;;;5051807;28;20670;-64
2023/01/14 02:51:39;;;;;;;13.17;8.17;;;7.60;99.90;;;;;;5034139;28;20690;-64
2023/01/14 02:54:05;;;;;;;7.83;7.10;;;7.50;99.90;;;;;;5032148;28;20175;-64
2023/01/14 02:56:32;;;;;;;14.63;7.27;;;7.40;99.90;;;;;;5047516;28;20671;-64
2023/01/14 02:59:00;;;;;;;8.00;6.20;;;7.40;99.90;;;;;;5051960;28;20174;-64
2023/01/14 03:01:35;;;;;;;18.90;7.40;;;7.40;99.90;;;;;;5049634;28;20203;-64
2023/01/14 03:04:48;;;;;;;12.83;7.07;;;7.40;99.90;;;;;;5051988;28;20167;-64
2023/01/14 03:07:20;;;;;;;12.37;7.03;;;7.40;99.90;;;;;;4970640;28;20233;-64
2023/01/14 03:10:06;;;;;;;21.47;6.37;;;7.30;99.90;;;;;;5004745;28;20188;-64
2023/01/14 03:12:48;;;;;;;7.43;6.33;;;7.10;99.90;;;;;;5012078;28;20564;-64
2023/01/14 03:15:28;;;;;;;11.90;6.80;;;7.10;99.90;;;;;;5015882;28;20641;-64
2023/01/14 03:18:03;;;;;;;6.93;6.20;;;7.00;99.90;;;;;;5031933;28;20603;-63
2023/01/14 03:20:34;;;;;;;6.47;5.83;;;6.90;99.90;;;;;;5034900;28;20170;-63
2023/01/14 03:23:05;;;;;;;7.53;6.60;;;6.80;99.90;;;;;;5051650;28;20190;-63
2023/01/14 03:25:35;;;;;;;14.30;8.27;;;6.80;99.90;;;;;;5047812;28;20294;-63
2023/01/14 03:28:03;;;;;;;17.10;5.93;;;6.80;99.90;;;;;;5031730;28;20179;-63
2023/01/14 03:30:35;;;;;;;5.87;5.47;;;6.70;99.90;;;;;;5033395;28;20178;-63
2023/01/14 03:33:06;;;;;;;8.20;5.70;;;6.80;99.90;;;;;;5051509;28;20249;-63
2023/01/14 03:35:38;;;;;;;6.90;6.30;;;6.80;99.90;;;;;;5050568;28;20182;-63
2023/01/14 03:38:18;;;;;;;11.20;6.33;;;6.80;99.90;;;;;;5038457;28;20182;-63
2023/01/14 03:40:47;;;;;;;6.07;5.77;;;6.80;99.90;;;;;;5050301;28;20198;-63
2023/01/14 03:43:29;;;;;;;10.23;5.63;;;6.80;99.90;;;;;;5031532;28;20183;-65
2023/01/14 03:45:56;;;;;;;9.63;5.77;;;6.90;99.90;;;;;;5011822;28;20204;-62
2023/01/14 03:48:22;;;;;;;9.80;6.47;;;6.90;99.90;;;;;;5012037;28;20206;-62
2023/01/14 03:50:56;;;;;;;9.63;5.67;;;6.90;99.90;;;;;;5050817;28;20234;-62
2023/01/14 03:53:59;;;;;;;5.80;5.50;;;6.90;99.90;;;;;;5051716;28;20163;-63
2023/01/14 03:56:27;;;;;;;8.80;5.63;;;6.90;99.90;;;;;;5011663;28;20238;-63
2023/01/14 03:59:16;;;;;;;11.23;6.13;;;7.00;99.90;;;;;;5016606;28;20240;-63
2023/01/14 04:01:48;;;;;;;6.17;5.77;;;6.90;99.90;;;;;;5050442;28;20217;-63
2023/01/14 04:04:15;;;;;;;6.40;5.47;;;7.00;99.90;;;;;;5046027;28;20625;-63
2023/01/14 04:06:40;;;;;;;15.27;6.87;;;7.00;99.90;;;;;;5031204;28;20289;-63
2023/01/14 04:09:08;;;;;;;7.57;6.67;;;7.00;99.90;;;;;;5033931;28;20270;-63
2023/01/14 04:11:34;;;;;;;7.00;6.50;;;7.00;99.90;;;;;;5049025;28;20542;-63
2023/01/14 04:16:43;;;;;;;17.73;5.77;;;7.00;99.90;;;;;;5041162;28;20198;-63
2023/01/14 04:19:09;;;;;;;8.77;5.80;;;7.10;99.90;;;;;;5050693;28;20167;-63
2023/01/14 04:21:34;;;;;;;7.60;5.77;;;7.10;99.90;;;;;;5042374;28;20616;-63
2023/01/14 04:24:00;;;;;;;6.83;6.00;;;7.10;99.90;;;;;;5031105;28;20182;-63
2023/01/14 04:26:28;;;;;;;15.57;6.50;;;7.10;99.90;;;;;;5036934;28;20301;-63
2023/01/14 04:28:56;;;;;;;13.20;7.50;;;7.10;99.90;;;;;;5050951;28;20171;-62
2023/01/14 04:31:22;;;;;;;10.40;5.70;;;7.10;99.90;;;;;;5045176;28;20191;-63
2023/01/14 04:33:48;;;;;;;13.87;5.93;;;7.10;99.90;;;;;;5038823;28;20175;-63
2023/01/14 04:36:13;;;;;;;15.77;6.50;;;7.10;99.90;;;;;;5047755;28;20649;-63
2023/01/14 04:38:39;;;;;;;7.00;6.30;;;7.10;99.90;;;;;;5030941;28;20175;-63
2023/01/14 04:41:05;;;;;;;6.50;5.87;;;7.10;99.90;;;;;;5034056;28;20209;-63
2023/01/14 04:43:30;;;;;;;14.63;5.77;;;7.10;99.90;;;;;;5054305;28;20541;-63
2023/01/14 04:45:56;;;;;;;7.37;5.60;;;7.10;99.90;;;;;;5054455;28;20206;-63
2023/01/14 04:48:24;;;;;;;5.47;5.17;;;7.00;99.90;;;;;;5034612;28;20226;-62
2023/01/14 04:50:50;;;;;;;19.93;6.90;;;6.90;99.90;;;;;;5034299;28;20168;-63
2023/01/14 04:53:20;;;;;;;6.47;5.87;;;6.80;99.90;;;;;;5052051;28;20179;-63
2023/01/14 04:55:47;;;;;;;5.30;5.00;;;6.80;99.90;;;;;;5054351;28;20185;-62
2023/01/14 04:58:15;;;;;;;6.43;5.40;;;6.70;99.90;;;;;;5037419;28;20172;-63
2023/01/14 05:00:41;;;;;;;5.80;5.20;;;6.70;99.90;;;;;;5034356;28;20245;-62
2023/01/14 05:03:09;;;;;;;8.17;5.77;;;6.60;99.90;;;;;;5049341;28;20206;-63
2023/01/14 05:05:36;;;;;;;7.03;5.30;;;6.60;99.90;;;;;;5053869;28;20202;-63
2023/01/14 05:08:03;;;;;;;6.47;5.97;;;6.60;99.90;;;;;;5039962;28;20660;-63
2023/01/14 05:10:30;;;;;;;6.47;5.10;;;6.60;99.90;;;;;;5043546;28;20182;-63
2023/01/14 05:12:58;;;;;;;5.60;5.23;;;6.50;99.90;;;;;;5052710;28;20317;-63
2023/01/14 05:15:39;;;;;;;9.60;5.97;;;6.50;99.90;;;;;;5051985;28;20656;-63
2023/01/14 05:18:06;;;;;;;6.43;5.80;;;6.40;99.90;;;;;;5054008;28;20241;-63
2023/01/14 05:20:31;;;;;;;10.03;6.63;;;6.40;99.90;;;;;;5042388;28;20225;-63
2023/01/14 05:23:03;;;;;;;14.53;7.73;;;6.40;99.90;;;;;;5033768;28;20678;-63
2023/01/14 05:25:31;;;;;;;6.63;5.27;;;6.30;99.90;;;;;;5042975;28;20349;-62
2023/01/14 05:28:01;;;;;;;6.33;5.63;;;6.30;99.90;;;;;;5054053;28;20663;-62
2023/01/14 05:30:27;;;;;;;6.27;5.53;;;6.30;99.90;;;;;;5044264;28;20204;-63
2023/01/14 05:32:53;;;;;;;6.07;5.57;;;6.30;99.90;;;;;;5033653;28;20195;-62
2023/01/14 05:35:18;;;;;;;8.17;5.80;;;6.30;99.90;;;;;;5040225;28;20245;-63
2023/01/14 05:37:44;;;;;;;6.00;5.10;;;6.30;99.90;;;;;;5049721;28;20222;-63
2023/01/14 05:40:10;;;;;;;5.33;5.00;;;6.30;99.90;;;;;;5033077;28;20225;-63
2023/01/14 05:45:41;;;;;;;9.60;5.97;;;6.30;99.90;;;;;;5053275;28;20316;-63
2023/01/14 05:48:08;;;;;;;5.90;4.90;;;6.30;99.90;;;;;;5047811;28;20176;-62
2023/01/14 05:50:33;;;;;;;9.43;5.87;;;6.30;99.90;;;;;;5032146;28;20172;-62
2023/01/14 05:52:59;;;;;;;4.87;4.67;;;6.30;99.90;;;;;;5036306;28;20248;-63
2023/01/14 05:55:24;;;;;;;8.80;5.50;;;6.30;99.90;;;;;;5052962;28;20178;-63
2023/01/14 05:57:50;;;;;;;11.47;5.30;;;6.40;99.90;;;;;;5051205;28;20245;-63
2023/01/14 06:06:47;;;;;;;13.83;6.53;;;6.50;99.90;;;;;;5013064;28;20295;-63
2023/01/14 06:08:40;;;;;;;5.40;5.10;;;6.60;99.90;;;;;;5014385;28;20179;-63
2023/01/14 06:11:08;;;;;;;6.83;5.43;;;6.60;99.90;;;;;;5052178;28;20202;-63
2023/01/14 06:13:34;;;;;;;6.67;5.77;;;6.70;99.90;;;;;;5052690;28;20178;-63
2023/01/14 06:16:02;;;;;;;11.70;6.37;;;6.80;99.90;;;;;;5052821;28;20755;-63
2023/01/14 06:18:37;;;;;;;5.50;5.20;;;6.80;99.90;;;;;;5033505;28;20185;-63
2023/01/14 06:21:03;;;;;;;5.87;5.37;;;6.90;99.90;;;;;;5031676;28;20202;-63
2023/01/14 06:23:29;;;;;;;7.07;5.90;;;6.90;99.90;;;;;;5050668;28;20175;-63
2023/01/14 06:25:55;;;;;;;10.93;5.90;;;7.00;99.90;;;;;;5052570;28;20213;-63
2023/01/14 06:28:20;;;;;;;6.07;5.67;;;7.10;99.90;;;;;;5038851;28;20167;-62
2023/01/14 06:30:46;;;;;;;6.10;5.57;;;7.10;99.90;;;;;;5012674;28;20617;-63
2023/01/14 06:33:12;;;;;;;6.93;6.07;;;7.10;99.90;;;;;;5012654;28;20638;-63
2023/01/14 06:35:42;;;;;;;6.23;5.77;;;7.20;99.90;;;;;;5012629;28;20180;-63
2023/01/14 06:38:09;;;;;;;6.47;5.80;;;7.20;99.90;;;;;;5035543;28;20171;-63
2023/01/14 06:40:37;;;;;;;7.80;5.57;;;7.30;99.90;;;;;;5032117;28;20183;-62
2023/01/14 06:43:03;;;;;;;7.57;6.37;;;7.40;99.90;;;;;;5048953;28;20206;-63
2023/01/14 06:45:29;;;;;;;7.90;5.93;;;7.40;99.90;;;;;;5052031;28;20282;-62
2023/01/14 06:47:54;;;;;;;7.43;6.73;;;7.50;99.90;;;;;;5036961;28;20203;-64
2023/01/14 06:50:20;;;;;;;8.47;6.40;;;7.50;99.90;;;;;;5031757;28;20672;-64
2023/01/14 06:52:48;;;;;;;7.60;6.97;;;7.50;99.90;;;;;;5045187;28;20244;-63
2023/01/14 06:55:14;;;;;;;6.33;5.80;;;7.50;99.90;;;;;;5052051;28;20175;-64
2023/01/14 06:57:42;;;;;;;10.60;6.27;;;7.40;99.90;;;;;;5050185;28;20204;-63
2023/01/14 07:00:10;;;;;;;12.27;7.00;;;7.40;99.90;;;;;;5051759;28;20170;-63
2023/01/14 07:02:35;;;;;;;9.87;7.90;;;7.40;99.90;;;;;;5040576;28;20235;-64
2023/01/14 07:05:01;;;;;;;8.00;6.20;;;7.30;99.90;;;;;;5032647;28;20261;-64
2023/01/14 07:07:27;;;;;;;6.73;6.13;;;7.30;99.90;;;;;;5034356;28;20171;-63
2023/01/14 07:09:52;;;;;;;10.27;6.70;;;7.30;99.90;;;;;;5033496;28;20641;-63
2023/01/14 07:12:18;;;;;;;5.93;5.57;;;7.30;99.90;;;;;;5036537;28;20294;-63
2023/01/14 07:14:43;;;;;;;6.20;5.70;;;7.30;99.90;;;;;;5034468;28;20179;-63
2023/01/14 07:17:09;;;;;;;8.43;5.70;;;7.30;99.90;;;;;;5032785;28;20187;-64
2023/01/14 07:19:34;;;;;;;8.07;6.33;;;7.20;99.90;;;;;;5031384;28;20647;-63
2023/01/14 07:22:00;;;;;;;7.50;5.87;;;7.20;99.90;;;;;;5034966;28;20240;-63
2023/01/14 07:24:26;;;;;;;5.80;5.30;;;7.10;99.90;;;;;;5049638;28;20179;-62
2023/01/14 07:26:51;;;;;;;12.83;5.97;;;7.00;99.90;;;;;;5031632;28;20219;-64
2023/01/14 07:29:17;;;;;;;7.63;5.60;;;6.90;99.90;;;;;;5031324;28;20171;-64
2023/01/14 07:31:42;;;;;;;9.60;6.27;;;6.90;99.90;;;;;;5049587;28;20576;-64
2023/01/14 07:34:08;;;;;;;10.13;6.13;;;6.80;99.90;;;;;;5051364;28;20237;-63
2023/01/14 07:36:34;;;;;;;11.23;6.83;;;6.80;99.90;;;;;;5033263;28;20540;-64
2023/01/14 07:38:59;;;;;;;6.67;6.07;;;6.80;99.90;;;;;;5031535;28;20645;-64
2023/01/14 07:41:25;;;;;;;6.00;5.63;;;6.80;99.90;;;;;;5065699;23;20307;-67
2023/01/14 07:43:51;;;;;;;7.33;6.67;;;6.70;99.90;;;;;;5003463;28;20186;-66
2023/01/14 07:46:17;;;;;;;6.17;5.60;;;6.70;99.90;;;;;;5051151;28;20204;-66
2023/01/14 07:48:44;;;;;;;5.80;5.30;;;6.70;99.90;;;;;;5056931;28;20542;-66
2023/01/14 07:51:11;;;;;;;5.77;5.47;;;6.70;99.90;;;;;;5040074;28;20234;-65
2023/01/14 07:53:37;;;;;;;5.37;5.13;;;6.70;99.90;;;;;;5031946;28;20176;-66
2023/01/14 07:56:05;;;;;;;5.33;5.13;;;6.60;99.90;;;;;;5032199;28;20171;-66
2023/01/14 07:58:30;;;;;;;5.60;5.10;;;6.60;99.90;;;;;;5033057;28;20207;-65
2023/01/14 08:00:57;;;;;;;6.30;5.80;;;6.70;99.90;;;;;;5033331;28;20644;-65
2023/01/14 08:03:23;;;;;;;6.03;5.60;;;6.70;99.90;;;;;;5032816;28;20171;-65
2023/01/14 08:05:49;;;;;;;5.43;5.13;;;6.70;99.90;;;;;;5031820;28;20668;-65
2023/01/14 08:08:16;;;;;;;7.63;6.13;;;6.70;99.90;;;;;;5031046;28;20182;-66
2023/01/14 08:10:41;;;;;;;6.73;6.07;;;6.70;99.90;;;;;;5031008;28;20661;-66
2023/01/14 08:13:11;;;;;;;6.17;5.43;;;6.80;99.90;;;;;;5031099;28;20245;-66
2023/01/14 08:15:37;;;;;;;5.23;4.93;;;6.80;99.90;;;;;;5034114;28;20281;-66
2023/01/14 08:18:03;;;;;;;8.20;5.87;;;6.80;99.90;;;;;;5034889;28;20510;-66
2023/01/14 08:20:28;;;;;;;6.40;6.00;;;6.90;99.90;;;;;;5035117;28;20391;-65
2023/01/14 08:22:58;;;;;;;9.87;6.00;;;6.90;99.90;;;;;;5035412;28;20668;-66
2023/01/14 08:25:25;;;;;;;7.43;6.73;;;6.90;99.90;;;;;;5031749;28;20270;-65
2023/01/14 08:27:50;;;;;;;12.37;6.33;;;7.00;99.90;;;;;;5034925;28;20246;-66
2023/01/14 08:30:16;;;;;;;8.00;6.07;;;7.00;99.90;;;;;;5034983;28;20743;-65
2023/01/14 08:32:42;;;;;;;8.83;7.03;;;7.10;99.90;;;;;;5035244;28;20202;-66
2023/01/14 08:35:08;;;;;;;5.87;5.33;;;7.10;99.90;;;;;;5034479;28;20198;-66
2023/01/14 08:37:33;;;;;;;6.47;5.97;;;7.10;99.90;;;;;;5034877;28;20171;-66
2023/01/14 08:39:59;;;;;;;6.80;6.10;;;7.20;99.90;;;;;;5034262;28;20245;-65
2023/01/14 08:42:25;;;;;;;7.10;6.70;;;7.20;99.90;;;;;;5034520;28;20203;-66
2023/01/14 08:44:50;;;;;;;5.90;5.40;;;7.20;99.90;;;;;;5033191;28;20221;-66
2023/01/14 08:47:16;;;;;;;6.60;6.00;;;7.30;99.90;;;;;;5034136;28;20175;-66
2023/01/14 08:49:41;;;;;;;6.03;5.80;;;7.30;99.90;;;;;;5034138;28;20172;-66
2023/01/14 08:52:07;;;;;;;6.60;6.00;;;7.40;99.90;;;;;;5034236;28;20195;-66
2023/01/14 08:54:33;;;;;;;6.43;6.07;;;7.40;99.90;;;;;;5034112;28;20181;-65
2023/01/14 08:56:59;;;;;;;8.50;5.83;;;7.50;99.90;;;;;;5034260;28;20171;-65
2023/01/14 08:59:24;;;;;;;6.10;5.80;;;7.60;99.90;;;;;;5033434;28;20179;-65
2023/01/14 09:01:50;;;;;;;5.63;5.40;;;7.70;99.90;;;;;;5033856;28;20262;-65
2023/01/14 09:04:16;;;;;;;5.53;5.33;;;7.80;99.90;;;;;;5033903;28;20190;-66
2023/01/14 09:17:41;;;;;;;5.13;4.93;;;8.10;99.90;;;;;;5021882;28;20261;-65
2023/01/14 09:20:16;;;;;;;5.07;4.87;;;8.20;99.90;;;;;;5033914;28;20167;-65
2023/01/14 09:22:45;;;;;;;5.17;4.83;;;8.20;99.90;;;;;;5033364;28;20195;-66
2023/01/14 09:25:10;;;;;;;5.10;4.90;;;8.20;99.90;;;;;;5033401;28;20741;-65
2023/01/14 09:27:36;;;;;;;4.57;4.37;;;8.30;99.90;;;;;;5033203;28;20260;-65
2023/01/14 09:30:02;;;;;;;5.90;4.90;;;8.30;99.90;;;;;;5015542;28;20178;-65
2023/01/14 09:32:28;;;;;;;5.47;5.17;;;8.40;99.90;;;;;;5032799;28;20270;-66
2023/01/14 09:34:53;;;;;;;5.47;5.13;;;8.40;99.90;;;;;;5016264;28;20207;-65
2023/01/14 09:37:21;;;;;;;6.00;5.70;;;8.40;99.90;;;;;;5034112;28;20237;-65
2023/01/14 09:39:47;;;;;;;6.13;5.90;;;8.50;99.90;;;;;;5033826;28;20175;-65
2023/01/14 09:42:38;;;;;;;5.53;5.33;;;8.50;99.90;;;;;;5034637;28;20589;-64
2023/01/14 09:45:14;;;;;;;6.10;5.80;;;8.50;99.90;;;;;;5033300;28;20179;-65
2023/01/14 09:47:40;;;;;;;5.80;5.60;;;8.60;99.90;;;;;;5033874;28;20172;-66
2023/01/14 09:50:13;;;;;;;6.03;5.73;;;8.60;99.90;;;;;;5033407;28;20176;-65
2023/01/14 09:53:03;;;;;;;6.30;5.90;;;8.70;99.90;;;;;;5015858;28;20226;-65
2023/01/14 09:55:43;;;;;;;5.83;5.20;;;8.70;99.90;;;;;;5033273;28;20603;-65
2023/01/14 09:58:23;;;;;;;6.27;5.87;;;8.70;99.90;;;;;;5033721;28;20179;-65
2023/01/14 10:01:08;;;;;;;5.97;5.47;;;8.70;99.90;;;;;;5032654;28;20175;-66
2023/01/14 10:04:01;;;;;;;6.33;6.03;;;8.70;99.90;;;;;;5032809;28;20194;-65
2023/01/14 10:06:27;;;;;;;5.93;5.53;;;8.70;99.90;;;;;;5032954;28;20203;-65
2023/01/14 10:09:06;;;;;;;6.27;5.97;;;8.60;99.90;;;;;;5032927;28;20234;-65
2023/01/14 10:11:37;;;;;;;5.73;5.43;;;8.60;99.90;;;;;;5032240;28;20230;-65
2023/01/14 10:14:23;;;;;;;5.83;5.63;;;8.60;99.90;;;;;;5032910;28;20168;-66
2023/01/14 10:16:54;;;;;;;5.57;5.27;;;8.50;99.90;;;;;;5032805;28;20179;-65
2023/01/14 10:19:43;;;;;;;5.30;5.10;;;8.50;99.90;;;;;;5032628;28;20585;-66
2023/01/14 10:22:42;;;;;;;5.43;5.00;;;8.50;99.90;;;;;;5032522;28;20203;-66
2023/01/14 10:25:19;;;;;;;5.33;5.10;;;8.40;99.90;;;;;;5032622;28;20176;-65
2023/01/14 10:27:51;;;;;;;5.30;5.03;;;8.40;99.90;;;;;;5032212;28;20539;-66
2023/01/14 10:30:21;;;;;;;5.53;5.13;;;8.40;99.90;;;;;;5032287;28;20159;-65
2023/01/14 10:32:51;;;;;;;5.20;4.80;;;8.30;99.90;;;;;;5032359;28;20179;-66
2023/01/14 10:35:28;;;;;;;12.30;4.60;;;8.30;99.90;;;;;;5032399;28;20172;-65
2023/01/14 10:37:53;;;;;;;5.73;5.30;;;8.30;99.90;;;;;;5031506;28;20178;-65
2023/01/14 10:40:24;;;;;;;5.30;5.00;;;8.30;99.90;;;;;;5031643;28;20183;-66
2023/01/14 10:42:54;;;;;;;5.10;4.87;;;8.40;99.90;;;;;;5032233;28;20630;-65
2023/01/14 10:45:19;;;;;;;5.73;5.07;;;8.40;99.90;;;;;;5014077;28;20207;-65
2023/01/14 10:47:47;;;;;;;6.07;5.47;;;8.40;99.90;;;;;;5032284;28;20629;-66
2023/01/14 10:50:27;;;;;;;5.50;5.20;;;8.40;99.90;;;;;;5029486;28;20184;-66
2023/01/14 10:52:53;;;;;;;5.30;5.10;;;8.50;99.90;;;;;;5032291;28;20194;-66
2023/01/14 10:55:28;;;;;;;5.93;5.63;;;8.50;99.90;;;;;;5031627;28;20179;-66
2023/01/14 10:58:06;;;;;;;5.60;5.23;;;8.50;99.90;;;;;;5032006;28;20171;-66
2023/01/14 11:00:44;;;;;;;5.90;5.27;;;8.50;99.90;;;;;;5031227;28;20171;-65
2023/01/14 11:03:25;;;;;;;5.23;5.03;;;8.50;99.90;;;;;;5031893;28;20217;-66
2023/01/14 11:05:59;;;;;;;5.07;4.87;;;8.50;99.90;;;;;;5031498;28;20270;-66
2023/01/14 11:08:46;;;;;;;5.60;5.40;;;8.50;99.90;;;;;;5031752;28;20167;-66
2023/01/14 11:11:33;;;;;;;5.53;5.30;;;8.50;99.90;;;;;;5031153;28;20176;-65
2023/01/14 11:14:27;;;;;;;6.77;6.13;;;8.50;99.90;;;;;;5020961;28;20209;-65
2023/01/14 11:16:53;;;;;;;5.60;5.10;;;8.50;99.90;;;;;;5013800;28;20644;-66
2023/01/14 11:19:21;;;;;;;5.17;4.97;;;8.60;99.90;;;;;;5031208;28;20179;-65
2023/01/14 11:21:53;;;;;;;5.43;5.17;;;8.60;99.90;;;;;;5029022;28;20203;-65
2023/01/14 11:24:35;;;;;;;5.40;5.10;;;8.60;99.90;;;;;;5031788;28;20167;-65
2023/01/14 11:27:03;;;;;;;5.73;5.50;;;8.60;99.90;;;;;;5031207;28;20219;-66
2023/01/14 11:29:34;;;;;;;4.87;4.67;;;8.60;99.90;;;;;;5031503;28;20636;-66
2023/01/14 11:32:09;;;;;;;5.60;5.40;;;8.60;99.90;;;;;;5030971;28;20226;-65
2023/01/14 11:34:38;;;;;;;6.03;5.60;;;8.60;99.90;;;;;;5031339;28;20174;-65
2023/01/14 11:37:09;;;;;;;5.73;5.50;;;8.60;99.90;;;;;;5031426;28;20179;-65
2023/01/14 11:39:36;;;;;;;5.63;5.40;;;8.60;99.90;;;;;;5030945;28;20187;-65
2023/01/14 11:42:23;;;;;;;5.40;5.20;;;8.60;99.90;;;;;;5031161;28;20218;-65
2023/01/14 11:44:59;;;;;;;5.23;5.03;;;8.60;99.90;;;;;;5031367;28;20180;-66
2023/01/14 11:47:26;;;;;;;6.03;5.73;;;8.70;99.90;;;;;;5031432;28;20202;-65
2023/01/14 11:50:12;;;;;;;5.67;5.37;;;8.70;99.90;;;;;;5032654;28;20171;-65
2023/01/14 11:52:37;;;;;;;6.27;5.70;;;8.70;99.90;;;;;;5035232;28;20184;-66
2023/01/14 11:55:07;;;;;;;5.10;4.90;;;8.70;99.90;;;;;;5033371;28;20273;-65
2023/01/14 11:57:33;;;;;;;5.00;4.80;;;8.70;99.90;;;;;;5035437;28;20457;-66
2023/01/14 11:59:58;;;;;;;5.37;5.17;;;8.70;99.90;;;;;;5034610;28;20179;-66
2023/01/14 12:02:32;;;;;;;5.47;5.27;;;8.70;99.90;;;;;;5031083;28;20230;-66
2023/01/14 12:05:01;;;;;;;4.60;4.40;;;8.70;99.90;;;;;;5035173;28;20650;-65
2023/01/14 12:07:53;;;;;;;5.50;5.20;;;8.70;99.90;;;;;;5035027;28;20179;-65
2023/01/14 12:10:21;;;;;;;5.40;5.20;;;8.80;99.90;;;;;;5034877;28;20164;-65
2023/01/14 12:19:15;;;;;;;5.53;5.33;;;8.80;99.90;;;;;;5035364;28;20174;-67
2023/01/14 12:22:15;;;;;;;5.60;5.40;;;8.80;99.90;;;;;;5015450;28;20196;-65
2023/01/14 12:25:04;;;;;;;5.57;5.37;;;8.80;99.90;;;;;;5007418;28;20249;-66
2023/01/14 12:27:45;;;;;;;5.33;5.13;;;8.80;99.90;;;;;;5032877;28;20180;-65
2023/01/14 12:30:11;;;;;;;5.60;5.37;;;8.80;99.90;;;;;;5034372;28;20176;-65
2023/01/14 12:32:39;;;;;;;5.77;5.57;;;8.80;99.90;;;;;;5050634;28;20190;-65
2023/01/14 12:35:11;;;;;;;5.73;5.53;;;8.90;99.90;;;;;;5047466;28;20183;-66
2023/01/14 12:37:51;;;;;;;5.50;5.30;;;8.90;99.90;;;;;;5034859;28;20168;-65
2023/01/14 12:46:17;;;;;;;5.27;5.07;;;8.90;99.90;;;;;;5034380;28;20218;-66
2023/01/14 12:48:42;;;;;;;5.77;5.47;;;9.00;99.90;;;;;;5034318;28;20179;-65
2023/01/14 12:51:28;;;;;;;4.90;4.70;;;9.00;99.90;;;;;;5034628;28;20183;-66
2023/01/14 12:53:58;;;;;;;4.70;4.50;;;9.00;99.90;;;;;;5033965;28;20171;-66
2023/01/14 12:56:26;;;;;;;7.37;4.83;;;9.00;99.90;;;;;;5034330;28;20175;-66
2023/01/14 12:59:31;;;;;;;5.00;4.80;;;9.00;99.90;;;;;;5034133;28;20282;-66
2023/01/14 13:02:08;;;;;;;4.73;4.53;;;9.10;99.90;;;;;;4972611;28;20232;-65
2023/01/14 13:04:47;;;;;;;5.07;4.77;;;9.10;99.90;;;;;;5027406;28;20255;-65
2023/01/14 13:07:23;;;;;;;6.27;4.50;;;9.10;99.90;;;;;;5034214;28;20714;-66
2023/01/14 13:09:54;;;;;;;5.20;5.00;;;9.10;99.90;;;;;;5033596;28;20175;-66
2023/01/14 13:12:27;;;;;;;5.60;5.30;;;9.10;99.90;;;;;;5033924;28;20241;-66
2023/01/14 13:14:58;;;;;;;6.30;5.80;;;9.20;99.90;;;;;;5033950;28;20266;-66
2023/01/14 13:17:31;;;;;;;5.60;5.40;;;9.20;99.90;;;;;;5034107;28;20228;-65
2023/01/14 13:19:57;;;;;;;8.70;5.50;;;9.20;99.90;;;;;;5033364;28;20183;-66
2023/01/14 13:22:48;;;;;;;5.00;4.80;;;9.20;99.90;;;;;;5033837;28;20274;-65
2023/01/14 13:25:33;;;;;;;5.40;5.20;;;9.30;99.90;;;;;;5013882;28;20176;-65
2023/01/14 13:28:19;;;;;;;5.00;4.80;;;9.30;99.90;;;;;;5016203;28;20176;-65
2023/01/14 13:30:51;;;;;;;4.80;4.60;;;9.30;99.90;;;;;;5005145;28;20259;-67
2023/01/14 13:33:23;;;;;;;7.00;6.50;;;9.30;99.90;;;;;;5033577;28;20200;-66
2023/01/14 13:36:10;;;;;;;5.47;5.03;;;9.40;99.90;;;;;;5033539;28;20199;-64
2023/01/14 13:38:48;;;;;;;5.50;5.10;;;9.40;99.90;;;;;;5033947;28;20250;-65
2023/01/14 13:41:39;;;;;;;5.07;4.87;;;9.40;99.90;;;;;;5032946;28;20676;-65
2023/01/14 13:44:16;;;;;;;6.43;5.00;;;9.50;99.90;;;;;;5025316;28;20191;-65
2023/01/14 13:46:47;;;;;;;4.87;4.67;;;9.50;99.90;;;;;;5033667;28;20345;-66
2023/01/14 13:49:36;;;;;;;4.40;4.20;;;9.50;99.90;;;;;;5033439;28;20290;-65
2023/01/14 13:52:18;;;;;;;5.00;4.80;;;9.50;99.90;;;;;;5033292;28;20692;-66